Time;durP1;ratioP1;P1;durP2;ratioP2;P2;SDS_P1;SDS_P2;PMS_P1;PMS_P2;Temp;Humidity;BMP_temperature;BMP_pressure;BME280_temperature;BME280_humidity;BME280_pressure;Samples;Min_cycle;Max_cycle;Signal;HPM_P1;HPM_P2
2022/06/11 00:02:25;;;;;;;;;15.00;14.40;;;;;22.10;66.09;99248.97;6219707;28;99552;-73
2022/06/11 00:05:30;;;;;;;;;17.00;15.00;;;;;22.01;65.91;99246.03;6227199;27;97165;-72
2022/06/11 00:08:34;;;;;;;;;17.60;16.00;;;;;21.98;66.19;99250.19;6243922;27;97513;-74
2022/06/11 00:11:37;;;;;;;;;16.80;15.20;;;;;21.90;66.36;99242.50;6227373;27;98831;-73
2022/06/11 00:14:43;;;;;;;;;17.00;15.60;;;;;21.85;66.15;99244.47;6245411;27;96709;-73
2022/06/11 00:17:46;;;;;;;;;15.00;15.00;;;;;21.80;66.57;99244.50;6262546;27;97657;-72
2022/06/11 00:20:52;;;;;;;;;15.60;14.60;;;;;21.73;66.38;99238.53;6263827;27;97434;-72
2022/06/11 00:23:55;;;;;;;;;16.00;15.00;;;;;21.70;67.14;99245.41;6264052;27;97435;-74
2022/06/11 00:27:01;;;;;;;;;19.00;15.50;;;;;21.63;67.15;99236.69;6263769;27;97768;-74
2022/06/11 00:30:06;;;;;;;;;14.80;14.40;;;;;21.55;67.01;99235.34;6245359;27;96534;-74
2022/06/11 00:33:09;;;;;;;;;17.60;16.60;;;;;21.49;67.14;99246.66;6245499;27;96686;-72
2022/06/11 00:36:16;;;;;;;;;16.00;16.00;;;;;21.45;67.43;99243.66;6263984;27;97495;-74
2022/06/11 00:39:23;;;;;;;;;18.75;17.75;;;;;21.40;68.42;99245.63;6228654;27;98555;-75
2022/06/11 00:42:30;;;;;;;;;16.40;16.00;;;;;21.24;68.19;99233.94;6244074;27;97930;-75
2022/06/11 00:45:41;;;;;;;;;16.00;15.00;;;;;21.30;68.33;99242.94;6263362;27;96575;-75
2022/06/11 00:48:45;;;;;;;;;13.00;13.00;;;;;21.29;68.01;99246.78;6264336;27;96844;-73
2022/06/11 00:51:53;;;;;;;;;14.25;13.00;;;;;21.22;67.68;99260.78;6245480;27;98737;-73
2022/06/11 00:55:05;;;;;;;;;18.00;16.00;;;;;21.20;67.17;99263.00;6263505;27;96727;-75
2022/06/11 00:58:13;;;;;;;;;15.40;14.80;;;;;21.20;67.47;99262.19;6231220;27;96338;-74
2022/06/11 01:01:18;;;;;;;;;15.00;14.40;;;;;21.15;67.19;99266.59;6226595;28;97152;-74
2022/06/11 01:04:44;;;;;;;;;15.40;14.00;;;;;21.15;67.37;99263.88;6228205;28;99492;-75
2022/06/11 01:08:05;;;;;;;;;16.20;14.80;;;;;21.10;67.01;99244.66;6232784;28;96985;-74
2022/06/11 01:11:39;;;;;;;;;18.00;16.00;;;;;20.99;67.70;99234.00;6215539;28;97729;-74
2022/06/11 01:14:49;;;;;;;;;17.00;15.20;;;;;21.10;68.11;99247.41;6212956;28;97600;-73
2022/06/11 01:18:08;;;;;;;;;16.20;15.20;;;;;21.07;67.51;99247.13;6213385;28;97351;-75
2022/06/11 01:21:24;;;;;;;;;20.00;16.00;;;;;21.07;68.46;99241.66;6231989;28;96834;-74
2022/06/11 01:24:53;;;;;;;;;20.00;18.60;;;;;21.05;69.06;99246.59;6237351;28;97528;-73
2022/06/11 01:28:27;;;;;;;;;17.60;16.60;;;;;21.10;68.80;99247.41;6237427;28;97493;-74
2022/06/11 01:31:34;;;;;;;;;17.40;14.00;;;;;21.12;68.03;99252.59;6236007;28;96708;-72
2022/06/11 01:34:45;;;;;;;;;17.00;15.60;;;;;21.14;68.31;99251.25;6219777;28;96993;-74
2022/06/11 01:37:54;;;;;;;;;17.80;16.80;;;;;21.17;69.34;99247.09;6211099;28;96932;-73
2022/06/11 01:41:20;;;;;;;;;15.50;15.00;;;;;21.14;69.19;99243.03;6211997;28;97413;-72
2022/06/11 01:44:28;;;;;;;;;18.40;17.40;;;;;21.12;69.25;99250.66;6221670;28;96897;-72
2022/06/11 01:47:35;;;;;;;;;17.00;15.00;;;;;21.03;68.86;99237.81;6236333;28;97479;-74
2022/06/11 01:50:43;;;;;;;;;16.60;16.00;;;;;20.98;69.39;99237.84;6236033;28;97931;-74
2022/06/11 01:54:02;;;;;;;;;16.50;15.50;;;;;21.21;69.02;99252.88;6227472;28;97633;-74
2022/06/11 01:57:34;;;;;;;;;16.80;15.20;;;;;21.27;69.44;99251.72;6237525;28;97896;-74
2022/06/11 02:00:39;;;;;;;;;14.00;13.50;;;;;21.24;69.43;99244.88;6247992;27;97443;-74
2022/06/11 02:03:58;;;;;;;;;17.00;15.00;;;;;21.15;69.20;99236.44;6243632;27;96508;-74
2022/06/11 02:07:12;;;;;;;;;16.50;16.00;;;;;21.33;69.31;99256.09;6262557;27;97415;-74
2022/06/11 02:10:21;;;;;;;;;17.00;16.00;;;;;21.29;69.17;99247.59;6226598;27;97786;-74
2022/06/11 02:13:32;;;;;;;;;15.60;15.00;;;;;21.37;69.12;99257.16;6251358;27;97516;-73
2022/06/11 02:16:39;;;;;;;;;16.40;14.60;;;;;21.39;68.83;99253.03;6262406;27;96486;-73
2022/06/11 02:19:51;;;;;;;;;16.50;16.00;;;;;21.42;69.16;99260.69;6231603;27;97114;-74
2022/06/11 02:23:00;;;;;;;;;16.00;15.00;;;;;21.45;69.43;99256.56;6260406;27;97523;-73
2022/06/11 02:26:10;;;;;;;;;17.00;16.40;;;;;21.49;68.75;99266.69;6242464;27;97290;-75
2022/06/11 02:29:16;;;;;;;;;17.60;16.60;;;;;21.51;69.08;99269.13;6238625;27;98121;-72
2022/06/11 02:32:25;;;;;;;;;19.00;15.00;;;;;21.49;68.92;99272.19;6243009;27;98150;-73
2022/06/11 02:35:38;;;;;;;;;16.80;15.00;;;;;21.54;69.21;99271.34;6236655;27;96849;-74
2022/06/11 02:38:41;;;;;;;;;17.80;16.00;;;;;21.58;69.83;99277.88;6252524;27;96990;-74
2022/06/11 02:41:46;;;;;;;;;16.00;15.40;;;;;21.60;70.01;99281.16;6244405;27;97232;-74
2022/06/11 02:44:50;;;;;;;;;21.00;17.40;;;;;21.48;70.07;99265.06;6245969;27;96707;-74
2022/06/11 02:47:55;;;;;;;;;17.00;17.00;;;;;21.64;70.01;99284.97;6240429;27;96560;-74
2022/06/11 02:50:59;;;;;;;;;16.60;16.00;;;;;21.69;69.60;99295.09;6258135;27;97416;-74
2022/06/11 02:54:03;;;;;;;;;17.25;15.25;;;;;21.71;69.72;99292.88;6246033;27;96830;-74
2022/06/11 02:57:13;;;;;;;;;16.00;15.00;;;;;21.50;70.01;99256.53;6246515;27;97127;-72
2022/06/11 03:00:22;;;;;;;;;18.50;16.00;;;;;21.71;69.62;99288.22;6265342;27;96532;-74
2022/06/11 03:03:27;;;;;;;;;16.00;15.20;;;;;21.67;70.11;99289.91;6266026;27;96482;-72
2022/06/11 03:06:32;;;;;;;;;17.80;16.00;;;;;21.63;69.26;99290.75;6246093;27;97768;-73
2022/06/11 03:09:39;;;;;;;;;17.00;16.20;;;;;21.41;69.52;99269.19;6265294;27;97464;-72
2022/06/11 03:12:42;;;;;;;;;18.00;17.00;;;;;21.56;69.81;99289.13;6230136;27;96675;-74
2022/06/11 03:15:45;;;;;;;;;16.00;15.00;;;;;21.57;68.96;99287.22;6245580;27;97625;-74
2022/06/11 03:18:49;;;;;;;;;17.00;15.40;;;;;21.55;68.78;99287.47;6265813;27;96432;-74
2022/06/11 03:21:56;;;;;;;;;15.20;15.00;;;;;21.42;68.68;99277.16;6247192;27;98500;-73
2022/06/11 03:24:59;;;;;;;;;16.40;15.00;;;;;21.47;68.35;99282.59;6222155;28;98368;-74
2022/06/11 03:28:07;;;;;;;;;17.00;16.00;;;;;21.46;68.38;99275.47;6261146;27;96390;-74
2022/06/11 03:31:10;;;;;;;;;20.00;17.75;;;;;21.50;68.65;99281.22;6264711;27;96686;-73
2022/06/11 03:34:15;;;;;;;;;20.40;18.40;;;;;21.56;68.59;99271.84;6230268;27;98405;-74
2022/06/11 03:37:20;;;;;;;;;20.50;19.50;;;;;21.46;68.14;99269.16;6245717;27;100658;-74
2022/06/11 03:40:24;;;;;;;;;19.00;18.20;;;;;21.62;68.69;99284.44;6246779;27;96547;-73
2022/06/11 03:43:27;;;;;;;;;21.00;18.00;;;;;21.41;68.58;99241.75;6245343;27;97448;-75
2022/06/11 03:46:30;;;;;;;;;19.60;17.00;;;;;21.70;68.31;99280.28;6264265;27;96538;-73
2022/06/11 03:49:34;;;;;;;;;19.75;18.75;;;;;21.78;68.57;99296.13;6264251;27;96465;-72
2022/06/11 03:52:41;;;;;;;;;18.25;17.50;;;;;21.86;68.56;99288.13;6244763;27;98919;-73
2022/06/11 03:55:45;;;;;;;;;19.00;18.00;;;;;21.85;68.24;99275.50;6263946;27;97552;-74
2022/06/11 03:58:50;;;;;;;;;20.00;18.40;;;;;22.02;67.80;99297.09;6236843;28;96341;-73
2022/06/11 04:01:53;;;;;;;;;19.00;17.00;;;;;22.05;67.43;99285.53;6230069;27;96939;-73
2022/06/11 04:04:56;;;;;;;;;19.00;18.40;;;;;22.09;67.48;99283.03;6245700;27;100418;-74
2022/06/11 04:08:01;;;;;;;;;20.00;18.00;;;;;22.08;66.85;99293.22;6264292;27;96318;-73
2022/06/11 04:11:05;;;;;;;;;20.40;19.00;;;;;22.14;67.27;99296.75;6245364;27;98129;-74
2022/06/11 04:14:08;;;;;;;;;20.00;19.00;;;;;22.19;66.71;99296.66;6228896;27;97213;-74
2022/06/11 04:17:17;;;;;;;;;19.80;18.00;;;;;22.18;66.79;99298.63;6264613;27;97458;-74
2022/06/11 04:20:21;;;;;;;;;19.50;18.00;;;;;22.24;66.32;99300.19;6245867;27;97453;-73
2022/06/11 04:23:29;;;;;;;;;22.00;19.00;;;;;22.25;65.54;99301.84;6263789;27;97204;-74
2022/06/11 04:26:35;;;;;;;;;20.50;18.50;;;;;22.23;65.76;99303.25;6240960;27;98775;-75
2022/06/11 04:29:43;;;;;;;;;18.00;18.00;;;;;22.18;65.47;99304.09;6259415;27;96706;-74
2022/06/11 04:32:46;;;;;;;;;19.00;17.00;;;;;22.22;65.78;99298.84;6259140;27;97459;-73
2022/06/11 04:35:50;;;;;;;;;18.00;17.00;;;;;22.32;65.12;99296.84;6264113;27;96371;-74
2022/06/11 04:38:55;;;;;;;;;16.80;16.00;;;;;22.46;65.10;99294.25;6263542;27;97409;-74
2022/06/11 04:41:59;;;;;;;;;18.20;17.00;;;;;22.50;64.44;99286.22;6248801;27;96991;-76
2022/06/11 04:45:04;;;;;;;;;18.40;17.00;;;;;22.53;64.06;99299.41;6245059;27;98084;-75
2022/06/11 04:48:07;;;;;;;;;18.00;17.00;;;;;22.59;63.94;99296.28;6257605;27;97676;-75
2022/06/11 04:51:13;;;;;;;;;15.60;15.40;;;;;22.65;63.29;99295.13;6245835;27;96802;-74
2022/06/11 04:54:18;;;;;;;;;17.00;15.00;;;;;22.67;63.15;99281.94;6245691;27;97056;-74
2022/06/11 04:57:22;;;;;;;;;18.00;15.00;;;;;22.46;62.70;99225.56;6263256;27;96440;-74
2022/06/11 05:00:29;;;;;;;;;15.60;15.00;;;;;22.98;61.98;99290.66;6241371;27;98696;-73
2022/06/11 05:03:33;;;;;;;;;15.40;14.80;;;;;23.08;61.66;99303.47;6232599;27;98061;-73
2022/06/11 05:06:39;;;;;;;;;18.00;17.00;;;;;23.18;61.38;99295.09;6245290;27;96558;-73
2022/06/11 05:09:44;;;;;;;;;15.00;15.00;;;;;23.34;60.67;99296.56;6241452;27;96864;-72
2022/06/11 05:12:47;;;;;;;;;15.00;15.00;;;;;23.49;60.69;99301.06;6263533;27;97025;-74
2022/06/11 05:15:57;;;;;;;;;15.50;15.00;;;;;23.63;59.99;99296.47;6262057;27;98559;-74
2022/06/11 05:19:00;;;;;;;;;14.00;13.00;;;;;23.73;59.23;99301.81;6236421;27;98311;-74
2022/06/11 05:22:05;;;;;;;;;14.80;14.00;;;;;23.80;59.05;99302.25;6241578;27;96425;-74
2022/06/11 05:25:12;;;;;;;;;17.60;15.00;;;;;23.93;58.37;99309.78;6242332;27;96557;-72
2022/06/11 05:28:19;;;;;;;;;11.60;11.00;;;;;24.14;56.76;99307.53;6252883;27;97507;-74
2022/06/11 05:31:23;;;;;;;;;13.40;12.00;;;;;24.37;55.92;99311.31;6219801;28;98061;-73
2022/06/11 05:34:27;;;;;;;;;12.50;11.00;;;;;24.55;54.84;99319.53;6248463;27;96832;-73
2022/06/11 05:37:31;;;;;;;;;14.25;14.00;;;;;24.71;54.71;99316.50;6242627;27;97565;-74
2022/06/11 05:40:41;;;;;;;;;7.40;7.40;;;;;24.88;52.73;99322.25;6241616;27;98345;-74
2022/06/11 05:43:45;;;;;;;;;10.40;10.00;;;;;24.99;51.17;99327.28;6239012;27;97407;-72
2022/06/11 05:46:49;;;;;;;;;9.00;9.00;;;;;25.09;50.46;99325.44;6261863;27;98014;-75
2022/06/11 05:49:58;;;;;;;;;7.40;7.40;;;;;25.18;51.09;99318.91;6226802;27;97247;-75
2022/06/11 05:53:04;;;;;;;;;7.80;7.80;;;;;25.39;50.04;99330.34;6241840;27;99052;-74
2022/06/11 05:56:10;;;;;;;;;7.60;7.60;;;;;25.53;49.30;99330.31;6243343;27;98205;-75
2022/06/11 05:59:20;;;;;;;;;8.60;8.00;;;;;25.49;47.15;99332.06;6262368;27;98085;-74
2022/06/11 06:02:25;;;;;;;;;8.00;7.40;;;;;25.49;47.41;99338.41;6226137;27;97956;-74
2022/06/11 06:05:30;;;;;;;;;7.00;6.00;;;;;25.60;48.42;99334.34;6250961;27;96799;-74
2022/06/11 06:08:34;;;;;;;;;8.00;7.00;;;;;25.63;48.28;99314.38;6220201;27;98230;-73
2022/06/11 06:11:39;;;;;;;;;7.00;6.20;;;;;25.97;47.48;99335.97;6233072;27;96792;-74
2022/06/11 06:14:43;;;;;;;;;6.80;6.80;;;;;26.04;46.73;99336.38;6237220;28;96470;-72
2022/06/11 06:17:48;;;;;;;;;5.00;5.00;;;;;26.17;46.72;99346.53;6220806;27;98988;-74
2022/06/11 06:20:52;;;;;;;;;7.50;7.00;;;;;26.38;46.87;99354.38;6266339;27;97028;-74
2022/06/11 06:23:55;;;;;;;;;7.00;6.00;;;;;26.60;46.21;99346.06;6247100;27;98427;-72
2022/06/11 06:27:01;;;;;;;;;7.00;7.00;;;;;26.78;44.20;99350.56;6266235;27;97537;-75
2022/06/11 06:30:06;;;;;;;;;7.00;6.00;;;;;26.90;43.97;99350.00;6247920;27;99574;-75
2022/06/11 06:33:09;;;;;;;;;6.25;6.00;;;;;27.16;43.81;99353.72;6248551;27;97797;-74
2022/06/11 06:36:15;;;;;;;;;7.00;6.00;;;;;27.39;43.52;99357.22;6265329;27;96739;-74
2022/06/11 06:39:18;;;;;;;;;5.00;5.00;;;;;27.55;42.43;99358.44;6252787;27;96423;-74
2022/06/11 06:42:23;;;;;;;;;5.00;5.00;;;;;27.76;41.74;99356.66;6250950;27;96477;-75
2022/06/11 06:45:26;;;;;;;;;7.00;6.25;;;;;27.96;40.66;99350.50;6231663;27;99179;-73
2022/06/11 06:48:30;;;;;;;;;6.00;6.00;;;;;28.07;39.74;99351.00;6247726;27;96601;-73
2022/06/11 06:51:34;;;;;;;;;6.00;6.00;;;;;28.26;40.07;99345.16;6246445;27;97102;-73
2022/06/11 06:54:37;;;;;;;;;6.00;5.80;;;;;28.46;39.02;99343.66;6241844;27;97746;-73
2022/06/11 06:57:42;;;;;;;;;7.00;6.40;;;;;28.65;38.52;99341.34;6261560;27;96680;-73
2022/06/11 07:00:46;;;;;;;;;6.00;6.00;;;;;28.91;39.68;99344.91;6247664;27;97531;-71
2022/06/11 07:03:49;;;;;;;;;5.00;5.00;;;;;29.11;38.67;99348.91;6249549;27;97667;-73
2022/06/11 07:07:15;;;;;;;;;7.00;6.00;;;;;29.27;38.65;99350.78;6262014;27;96810;-72
2022/06/11 07:10:21;;;;;;;;;5.20;5.20;;;;;29.25;37.18;99342.00;6236532;27;98373;-73
2022/06/11 07:13:26;;;;;;;;;6.00;6.00;;;;;29.35;38.51;99342.78;6205645;28;97637;-74
2022/06/11 07:16:33;;;;;;;;;6.00;6.00;;;;;29.51;38.18;99347.44;6239765;28;97181;-73
2022/06/11 07:19:42;;;;;;;;;5.00;5.00;;;;;29.68;37.26;99347.34;6241120;28;96547;-73
2022/06/11 07:22:50;;;;;;;;;5.00;4.00;;;;;29.89;36.99;99344.59;6248343;27;96948;-75
2022/06/11 07:25:59;;;;;;;;;5.00;5.00;;;;;30.02;34.20;99351.03;6266069;27;96299;-73
2022/06/11 07:29:10;;;;;;;;;5.00;4.00;;;;;29.93;35.15;99336.41;6247744;27;96416;-73
2022/06/11 07:32:17;;;;;;;;;5.40;5.00;;;;;29.92;35.00;99355.03;6246543;27;99073;-72
2022/06/11 07:35:21;;;;;;;;;5.00;5.00;;;;;29.83;36.04;99364.56;6246614;27;96682;-74
2022/06/11 07:38:24;;;;;;;;;6.00;4.60;;;;;29.47;35.23;99342.91;6263096;27;97450;-73
2022/06/11 07:41:28;;;;;;;;;6.00;5.00;;;;;29.36;36.10;99349.97;6259693;27;97237;-72
2022/06/11 07:44:34;;;;;;;;;6.00;6.00;;;;;29.31;37.36;99359.31;6265148;27;96891;-75
2022/06/11 07:47:55;;;;;;;;;6.00;6.00;;;;;29.51;37.01;99360.53;6241671;27;97572;-74
2022/06/11 07:50:59;;;;;;;;;6.00;6.00;;;;;29.70;35.52;99353.38;6264716;27;96620;-74
2022/06/11 07:54:02;;;;;;;;;6.00;5.60;;;;;29.93;35.25;99347.50;6264365;27;96378;-73
2022/06/11 07:57:06;;;;;;;;;5.20;5.20;;;;;30.05;34.46;99351.19;6240170;28;97389;-73
2022/06/11 08:00:16;;;;;;;;;5.00;5.00;;;;;30.38;34.15;99354.00;6215284;27;99194;-74
2022/06/11 08:03:21;;;;;;;;;5.60;5.40;;;;;30.60;34.54;99355.63;6264232;27;97478;-74
2022/06/11 08:06:25;;;;;;;;;5.00;5.00;;;;;30.81;33.45;99356.38;6247836;27;96367;-73
2022/06/11 08:09:28;;;;;;;;;5.00;4.00;;;;;31.01;33.19;99351.91;6262636;27;98626;-72
2022/06/11 08:12:32;;;;;;;;;3.80;3.80;;;;;31.12;30.69;99355.91;6232507;28;99885;-74
2022/06/11 08:15:37;;;;;;;;;5.00;4.00;;;;;31.18;30.03;99360.06;6221259;28;99436;-75
2022/06/11 08:18:40;;;;;;;;;5.00;5.00;;;;;31.33;29.81;99350.22;6240647;27;97107;-75
2022/06/11 08:21:43;;;;;;;;;5.00;5.00;;;;;31.50;30.79;99349.19;6245814;27;97321;-74
2022/06/11 08:24:47;;;;;;;;;5.00;4.00;;;;;31.81;30.75;99344.63;6255562;27;96965;-74
2022/06/11 08:27:51;;;;;;;;;5.20;5.20;;;;;32.01;30.06;99339.25;6246323;27;98126;-75
2022/06/11 08:30:56;;;;;;;;;5.00;5.00;;;;;31.99;28.26;99338.78;6227993;27;99564;-74
2022/06/11 08:33:59;;;;;;;;;4.00;4.00;;;;;31.90;29.22;99340.91;6237822;28;96486;-75
2022/06/11 08:37:03;;;;;;;;;5.00;4.00;;;;;32.03;29.87;99343.31;6258434;27;96661;-74
2022/06/11 08:40:13;;;;;;;;;5.20;4.80;;;;;31.71;29.29;99336.78;6250033;27;96953;-75
2022/06/11 08:43:20;;;;;;;;;5.00;5.00;;;;;31.51;29.89;99342.44;6263936;27;96617;-76
2022/06/11 08:46:29;;;;;;;;;5.00;4.00;;;;;31.09;29.47;99334.28;6263739;27;97461;-73
2022/06/11 08:49:39;;;;;;;;;5.00;4.00;;;;;30.92;30.00;99337.28;6242555;27;97437;-75
2022/06/11 08:52:44;;;;;;;;;5.00;5.00;;;;;30.61;30.43;99334.16;6227160;27;98444;-73
2022/06/11 08:55:47;;;;;;;;;5.00;5.00;;;;;30.53;30.60;99314.47;6245071;27;98454;-74
2022/06/11 08:59:08;;;;;;;;;5.00;5.00;;;;;30.92;31.80;99331.72;6262445;27;97422;-73
2022/06/11 09:02:38;;;;;;;;;6.40;5.00;;;;;31.42;30.40;99325.03;6220514;28;97083;-73
2022/06/11 09:05:58;;;;;;;;;6.60;6.00;;;;;31.83;29.35;99317.22;6237625;28;97346;-73
2022/06/11 09:09:07;;;;;;;;;12.80;11.40;;;;;32.25;28.45;99311.31;6252448;27;97747;-73
2022/06/11 09:12:29;;;;;;;;;5.20;5.00;;;;;31.95;27.37;99277.34;6262838;27;96613;-74
2022/06/11 09:15:48;;;;;;;;;5.00;5.00;;;;;31.78;27.38;99314.66;6234448;27;98545;-73
2022/06/11 09:19:19;;;;;;;;;5.20;5.20;;;;;32.00;27.78;99299.41;6263234;27;96509;-75
2022/06/11 09:22:55;;;;;;;;;5.00;5.00;;;;;32.02;27.65;99293.44;6231218;27;97515;-74
2022/06/11 09:26:12;;;;;;;;;4.00;4.00;;;;;32.10;28.42;99306.47;6242555;27;97148;-75
2022/06/11 09:29:26;;;;;;;;;5.50;5.00;;;;;31.97;27.85;99288.94;6252555;27;96370;-74
2022/06/11 09:32:31;;;;;;;;;5.00;4.00;;;;;32.20;27.92;99286.47;6259207;27;96679;-74
2022/06/11 09:35:40;;;;;;;;;5.00;4.60;;;;;32.58;26.99;99302.66;6225373;27;97279;-76
2022/06/11 09:38:55;;;;;;;;;10.50;9.50;;;;;32.63;27.12;99303.25;6263636;27;96238;-76
2022/06/11 09:42:12;;;;;;;;;4.00;4.00;;;;;32.59;27.07;99313.47;6253925;27;97449;-74
2022/06/11 09:45:21;;;;;;;;;4.00;3.00;;;;;32.66;27.37;99291.34;6244488;27;98454;-76
2022/06/11 09:48:37;;;;;;;;;5.60;4.60;;;;;32.79;25.98;99285.69;6263332;27;96326;-76
2022/06/11 09:51:49;;;;;;;;;3.00;3.00;;;;;32.95;25.63;99281.72;6262837;27;97605;-75
2022/06/11 09:54:55;;;;;;;;;7.60;6.40;;;;;32.84;25.63;99289.00;6251998;27;97160;-75
2022/06/11 09:58:05;;;;;;;;;37.00;28.00;;;;;32.73;25.38;99287.13;6237917;27;99421;-75
2022/06/11 10:01:33;;;;;;;;;9.25;7.00;;;;;32.90;25.45;99281.16;6255468;27;96819;-75
2022/06/11 10:04:42;;;;;;;;;42.80;31.00;;;;;33.08;25.04;99280.47;6235371;28;97686;-75
2022/06/11 10:07:53;;;;;;;;;8.00;6.40;;;;;33.11;24.75;99281.72;6261448;27;96412;-73
2022/06/11 10:10:58;;;;;;;;;4.00;3.80;;;;;32.96;24.30;99277.75;6260405;27;96330;-75
2022/06/11 10:17:31;;;;;;;;;4.00;3.00;;;;;32.91;24.22;99280.00;6261962;27;96863;-73
2022/06/11 10:20:40;;;;;;;;;8.00;6.00;;;;;32.60;24.65;99272.38;6254700;27;96643;-74
2022/06/11 10:23:51;;;;;;;;;2.00;2.00;;;;;32.79;26.81;99277.31;6253756;27;97852;-73
2022/06/11 10:26:59;;;;;;;;;3.00;3.00;;;;;32.81;26.01;99274.97;6248805;27;97560;-74
2022/06/11 10:30:15;;;;;;;;;3.00;3.00;;;;;33.04;25.29;99273.16;6237832;28;96400;-74
2022/06/11 10:33:28;;;;;;;;;2.00;2.00;;;;;33.28;24.71;99278.56;6253491;27;96705;-75
2022/06/11 10:36:35;;;;;;;;;2.40;2.40;;;;;33.25;22.83;99270.91;6219647;28;97455;-73
2022/06/11 10:39:46;;;;;;;;;2.00;2.00;;;;;33.33;24.19;99266.31;6237847;28;96545;-75
2022/06/11 10:43:01;;;;;;;;;2.00;2.00;;;;;33.48;24.09;99263.47;6208708;27;96977;-75
2022/06/11 10:46:04;;;;;;;;;1.20;1.00;;;;;33.56;23.25;99261.66;6231312;27;96760;-73
2022/06/11 10:49:14;;;;;;;;;2.00;2.00;;;;;33.71;24.24;99260.00;6203845;28;98309;-75
2022/06/11 10:52:32;;;;;;;;;2.20;2.20;;;;;33.79;22.30;99265.38;6237562;28;97569;-74
2022/06/11 10:55:42;;;;;;;;;2.00;2.00;;;;;33.81;23.63;99265.03;6237548;28;96353;-73
2022/06/11 10:58:52;;;;;;;;;2.00;2.00;;;;;33.39;23.58;99232.13;6219815;28;97012;-76
2022/06/11 11:02:03;;;;;;;;;2.00;2.00;;;;;33.53;24.09;99271.56;6243658;27;97521;-73
2022/06/11 11:05:09;;;;;;;;;3.00;3.00;;;;;33.64;25.46;99274.59;6266801;27;96436;-75
2022/06/11 11:08:13;;;;;;;;;2.80;2.00;;;;;33.54;23.79;99255.59;6265341;27;96451;-76
2022/06/11 11:11:18;;;;;;;;;4.00;4.00;;;;;33.25;23.39;99256.13;6247985;27;98144;-72
2022/06/11 11:14:31;;;;;;;;;2.60;2.60;;;;;33.19;24.74;99257.56;6264417;27;97465;-74
2022/06/11 11:17:35;;;;;;;;;5.00;4.00;;;;;32.96;24.50;99262.97;6266473;27;96975;-73
2022/06/11 11:20:42;;;;;;;;;3.00;3.00;;;;;32.80;24.27;99246.22;6266720;27;96509;-76
2022/06/11 11:23:51;;;;;;;;;4.60;3.60;;;;;32.74;25.00;99260.84;6267102;27;97458;-77
2022/06/11 11:27:00;;;;;;;;;3.00;3.00;;;;;32.84;25.59;99265.88;6251144;27;97803;-77
2022/06/11 11:30:24;;;;;;;;;5.00;4.00;;;;;32.86;25.07;99267.13;6250099;27;97451;-77
2022/06/11 11:33:30;;;;;;;;;4.00;4.00;;;;;33.13;25.34;99264.59;6233044;27;97477;-79
2022/06/11 11:36:34;;;;;;;;;3.00;3.00;;;;;33.18;24.78;99248.41;6225728;27;98510;-77
2022/06/11 11:39:37;;;;;;;;;5.00;4.00;;;;;33.56;24.44;99258.84;6249826;27;96684;-77
2022/06/11 11:42:42;;;;;;;;;4.00;4.00;;;;;33.76;25.27;99257.75;6231679;27;97700;-78
2022/06/11 11:45:48;;;;;;;;;4.00;4.00;;;;;33.98;23.88;99255.38;6259003;27;97329;-79
2022/06/11 11:48:54;;;;;;;;;4.00;4.00;;;;;33.95;23.59;99251.34;6223903;28;98722;-77
2022/06/11 11:52:04;;;;;;;;;4.80;4.00;;;;;33.69;24.38;99256.75;6251787;27;96459;-77
2022/06/11 11:55:17;;;;;;;;;4.00;4.00;;;;;33.81;24.84;99253.84;6226625;27;97997;-78
2022/06/11 11:58:29;;;;;;;;;4.00;4.00;;;;;34.05;24.08;99252.72;6253406;27;96851;-78
2022/06/11 12:01:34;;;;;;;;;4.60;4.60;;;;;33.86;24.55;99259.97;6249247;27;96678;-79
2022/06/11 12:04:50;;;;;;;;;6.40;5.60;;;;;33.82;23.79;99259.03;6246913;27;97610;-78
2022/06/11 12:07:57;;;;;;;;;5.00;4.60;;;;;33.91;23.94;99242.88;6226616;27;96865;-78
2022/06/11 12:11:01;;;;;;;;;5.00;4.00;;;;;33.99;24.17;99248.59;6226995;27;98374;-77
2022/06/11 12:14:14;;;;;;;;;4.00;4.00;;;;;34.12;23.55;99248.06;6232691;28;96971;-79
2022/06/11 12:17:34;;;;;;;;;5.00;5.00;;;;;34.28;23.17;99239.63;6252423;27;96975;-78
2022/06/11 12:20:43;;;;;;;;;5.20;5.00;;;;;34.39;23.36;99242.63;6224918;27;97132;-77
2022/06/11 12:23:51;;;;;;;;;5.00;5.00;;;;;34.54;24.39;99236.94;6245720;27;97928;-78
2022/06/11 12:26:58;;;;;;;;;5.00;5.00;;;;;34.76;24.56;99252.13;6246819;27;96333;-78
2022/06/11 12:30:07;;;;;;;;;4.00;4.00;;;;;35.07;24.91;99254.66;6245217;27;96848;-78
2022/06/11 12:33:13;;;;;;;;;5.00;5.00;;;;;34.95;23.37;99249.25;6240343;27;99538;-76
2022/06/11 12:36:43;;;;;;;;;4.00;4.00;;;;;34.60;24.09;99254.22;6246375;27;99916;-76
2022/06/11 12:39:57;;;;;;;;;4.80;4.80;;;;;34.36;23.92;99250.56;6238838;27;97520;-77
2022/06/11 12:43:19;;;;;;;;;5.00;4.00;;;;;33.79;23.79;99226.22;6246400;27;98241;-78
2022/06/11 12:46:33;;;;;;;;;6.00;6.00;;;;;33.86;24.66;99245.16;6258467;27;97808;-77
2022/06/11 12:49:50;;;;;;;;;5.00;5.00;;;;;33.89;24.26;99239.63;6229158;27;96772;-79
2022/06/11 12:53:02;;;;;;;;;5.00;5.00;;;;;33.90;24.24;99241.25;6234711;27;98426;-77
2022/06/11 12:56:22;;;;;;;;;5.00;5.00;;;;;33.90;22.07;99243.25;6264149;27;97073;-77
2022/06/11 12:59:48;;;;;;;;;4.20;3.80;;;;;33.92;22.59;99243.66;6234488;27;98453;-78
2022/06/11 13:03:01;;;;;;;;;4.00;4.00;;;;;33.80;23.88;99244.63;6250105;27;97312;-78
2022/06/11 13:06:16;;;;;;;;;5.00;5.00;;;;;33.88;23.55;99238.00;6226998;27;97167;-77
2022/06/11 13:09:35;;;;;;;;;5.00;5.00;;;;;34.03;23.58;99241.91;6254558;27;96792;-77
2022/06/11 13:12:54;;;;;;;;;5.00;5.00;;;;;33.92;24.12;99227.69;6227699;27;98564;-78
2022/06/11 13:16:05;;;;;;;;;5.00;5.00;;;;;33.76;24.34;99240.16;6235154;27;97126;-78
2022/06/11 13:19:22;;;;;;;;;4.00;4.00;;;;;33.71;24.20;99243.22;6245554;27;96817;-78
2022/06/11 13:22:34;;;;;;;;;5.25;5.25;;;;;33.33;24.45;99236.34;6229657;27;97010;-79
2022/06/11 13:25:41;;;;;;;;;5.00;5.00;;;;;33.14;24.80;99227.91;6247311;27;97017;-79
2022/06/11 13:29:05;;;;;;;;;6.00;6.00;;;;;32.77;25.17;99229.38;6229651;27;98404;-77
2022/06/11 13:32:20;;;;;;;;;7.00;6.00;;;;;32.57;25.86;99234.84;6229409;27;96824;-77
2022/06/11 13:35:40;;;;;;;;;5.60;5.60;;;;;32.54;25.89;99230.00;6263561;27;96514;-77
2022/06/11 13:39:02;;;;;;;;;6.00;5.00;;;;;32.75;25.13;99229.72;6240702;27;98237;-78
2022/06/11 13:42:21;;;;;;;;;5.00;5.00;;;;;32.91;25.10;99233.34;6226713;27;99485;-78
2022/06/11 13:45:37;;;;;;;;;5.00;5.00;;;;;33.06;24.85;99238.09;6242269;27;98587;-79
2022/06/11 13:48:54;;;;;;;;;5.40;5.40;;;;;33.06;25.05;99226.94;6246555;27;97075;-79
2022/06/11 13:52:13;;;;;;;;;7.00;6.00;;;;;32.81;25.23;99235.88;6238155;27;98366;-79
2022/06/11 13:55:22;;;;;;;;;6.00;6.00;;;;;32.63;25.30;99227.00;6262311;27;97353;-77
2022/06/11 13:58:37;;;;;;;;;6.00;5.60;;;;;32.40;25.79;99235.16;6255496;27;96483;-77
2022/06/11 14:01:58;;;;;;;;;6.00;6.00;;;;;32.22;26.23;99229.13;6256613;27;97172;-78
2022/06/11 14:05:04;;;;;;;;;6.00;5.80;;;;;31.90;25.34;99181.97;6239430;27;97673;-77
2022/06/11 14:08:09;;;;;;;;;6.00;6.00;;;;;32.01;26.28;99217.31;6237070;27;98285;-77
2022/06/11 14:11:39;;;;;;;;;6.00;5.00;;;;;31.89;25.29;99211.00;6241775;27;98123;-78
2022/06/11 14:14:42;;;;;;;;;6.25;6.25;;;;;31.52;26.63;99199.94;6258486;27;97652;-78
2022/06/11 14:17:48;;;;;;;;;7.60;7.00;;;;;31.50;26.99;99204.25;6242544;27;98565;-79
2022/06/11 14:20:53;;;;;;;;;7.00;7.00;;;;;31.43;26.76;99204.84;6244855;27;98999;-78
2022/06/11 14:23:58;;;;;;;;;6.00;6.00;;;;;31.53;25.92;99198.78;6257064;27;97488;-77
2022/06/11 14:27:02;;;;;;;;;6.00;6.00;;;;;31.73;25.63;99200.59;6258842;27;99058;-78
2022/06/11 14:30:22;;;;;;;;;6.00;6.00;;;;;31.93;25.73;99200.75;6238548;27;98081;-77
2022/06/11 14:33:28;;;;;;;;;8.00;7.00;;;;;32.05;25.49;99184.78;6232910;27;98296;-77
2022/06/11 14:36:32;;;;;;;;;6.75;6.75;;;;;32.11;26.06;99193.72;6258945;27;98090;-75
2022/06/11 14:39:39;;;;;;;;;5.00;5.00;;;;;32.06;25.92;99189.19;6247087;27;96890;-77
2022/06/11 14:43:03;;;;;;;;;7.00;6.00;;;;;31.97;25.94;99168.19;6263201;27;96771;-78
2022/06/11 14:46:39;;;;;;;;;4.40;4.40;;;;;32.10;25.99;99186.50;6260384;27;96661;-79